Police, Poland
Current Conditions -  °F | °C
As of 9:30 AM on Wednesday 26 Nov 2014 (Local Time) from EPSC Reporting Station
Haze Haze  
Wind Chill: 41°   Ceiling: 1700
Heat Index: 41°   Visibility: 3mi
Dew Point: 39°   Wind: 2mph
Humidity: 93%   Direction: 120°ESE
Pressure: 30.3"   Gusts: NA
Location:  53.55°N, 14.56°E
Report Text: EPSC 260730Z 12002KT 5000 BR BKN017 05/04 Q1026
Loading
Personal Weather Stations






























Interactive Weather Map New forecast layout! Learn more

10-Day Weather Forecast

Advertisements
Track Severe Weather on mobile